CYFB

Iqaluit Airport

ICAO Code CYFB
IATA Code YFB
Name Iqaluit Airport
Location Iqaluit, Nunavut, CA
Elevation 110 Feet / 33.5 Meters
Latitude 63.75666667
Longitude -68.55611111
METAR CYFB 182300Z 15010KT 3SM -RA BR OVC003 04/04 A2990 RMK ST8 VIS VRB 2-4 VIS N-SE 3/4 CIG RAG SLP130
Extra information Display NOTAMS
Display Charts
Runway Length Width Surface Elevation
16 8605 ft 200 ft ASP 110 ft
34 8605 ft 200 ft ASP 71 ft